createdAt,value
2023-03-05T00:01:59.980Z,82.02
2023-03-05T00:04:26.522Z,81.37
2023-03-05T00:06:52.921Z,81.36
2023-03-05T00:09:19.356Z,81.82
2023-03-05T00:11:45.836Z,81.84
2023-03-05T00:14:12.635Z,81.74
2023-03-05T00:16:40.031Z,81.82
2023-03-05T00:19:07.329Z,81.69
2023-03-05T00:21:37.877Z,81.39
2023-03-05T00:24:07.045Z,81.22
2023-03-05T00:26:36.681Z,81.63
2023-03-05T00:29:03.728Z,82.27
2023-03-05T00:31:31.783Z,81.45
2023-03-05T00:34:01.552Z,81.30
2023-03-05T00:36:28.474Z,81.49
2023-03-05T00:38:55.443Z,81.63
2023-03-05T00:41:22.293Z,82.04
2023-03-05T00:43:49.066Z,81.73
2023-03-05T00:46:16.324Z,81.63
2023-03-05T00:48:43.090Z,80.72
2023-03-05T00:51:09.818Z,80.93
2023-03-05T00:53:36.458Z,81.22
2023-03-05T00:56:04.551Z,80.72
2023-03-05T00:58:31.165Z,81.47
2023-03-05T01:00:59.157Z,80.87
2023-03-05T01:03:25.670Z,80.87
2023-03-05T01:05:52.197Z,80.74
2023-03-05T01:08:18.676Z,81.10
2023-03-05T01:10:45.068Z,81.17
2023-03-05T01:13:11.936Z,80.90
2023-03-05T01:15:38.333Z,80.41
2023-03-05T01:18:05.016Z,81.23
2023-03-05T01:20:31.455Z,80.68
2023-03-05T01:22:59.173Z,81.04
2023-03-05T01:25:25.739Z,80.80
2023-03-05T01:27:52.613Z,81.43
2023-03-05T01:30:19.453Z,81.34
2023-03-05T01:32:46.616Z,81.02
2023-03-05T01:35:21.813Z,81.41
2023-03-05T01:37:48.542Z,81.47
2023-03-05T01:40:20.251Z,81.72
2023-03-05T01:42:55.528Z,80.72
2023-03-05T01:45:22.165Z,80.71
2023-03-05T01:47:48.953Z,81.16
2023-03-05T01:50:22.693Z,81.15
2023-03-05T01:52:54.713Z,81.00
2023-03-05T01:55:24.492Z,80.61
2023-03-05T01:57:54.885Z,81.04
2023-03-05T02:00:44.160Z,81.16
2023-03-05T02:03:12.134Z,80.31
2023-03-05T02:05:41.156Z,80.52
2023-03-05T02:08:10.256Z,80.41
2023-03-05T02:10:39.989Z,80.27
2023-03-05T02:13:17.311Z,80.44
2023-03-05T02:15:44.301Z,80.14
2023-03-05T02:18:10.927Z,80.69
2023-03-05T02:20:51.768Z,80.23
2023-03-05T02:23:21.076Z,80.72
2023-03-05T02:25:47.642Z,80.70
2023-03-05T02:28:19.881Z,81.23
2023-03-05T02:30:46.604Z,81.15
2023-03-05T02:33:14.864Z,81.23
2023-03-05T02:35:43.665Z,80.88
2023-03-05T02:38:11.719Z,81.35
2023-03-05T02:40:38.299Z,80.82
2023-03-05T02:43:05.194Z,81.98
2023-03-05T02:45:31.714Z,81.79
2023-03-05T02:47:58.172Z,81.82
2023-03-05T02:50:26.140Z,82.13
2023-03-05T02:52:52.980Z,82.08
2023-03-05T02:55:20.800Z,82.62
2023-03-05T02:57:47.241Z,82.61
2023-03-05T03:00:14.397Z,83.04
2023-03-05T03:02:40.843Z,82.92
2023-03-05T03:05:07.786Z,83.93
2023-03-05T03:07:35.899Z,84.10
2023-03-05T03:10:03.725Z,83.64
2023-03-05T03:12:30.137Z,83.75
2023-03-05T03:14:56.601Z,84.49
2023-03-05T03:17:23.089Z,84.70
2023-03-05T03:19:49.513Z,84.74
2023-03-05T03:22:16.200Z,84.79
2023-03-05T03:24:43.580Z,84.52
2023-03-05T03:27:10.523Z,85.03
2023-03-05T03:29:37.037Z,84.72
2023-03-05T03:32:04.613Z,84.93
2023-03-05T03:34:31.090Z,84.82
2023-03-05T03:36:57.522Z,85.02
2023-03-05T03:39:25.455Z,85.68
2023-03-05T03:41:53.519Z,85.66
2023-03-05T03:44:21.246Z,85.12
2023-03-05T03:46:49.162Z,84.95
2023-03-05T03:49:21.188Z,84.60
2023-03-05T03:51:49.900Z,85.29
2023-03-05T03:54:18.321Z,84.84
2023-03-05T03:56:45.402Z,85.00
2023-03-05T03:59:12.536Z,85.49
2023-03-05T04:01:39.161Z,85.25
2023-03-05T04:04:05.867Z,85.22
2023-03-05T04:06:33.331Z,84.88
2023-03-05T04:08:59.808Z,85.14
2023-03-05T04:11:26.451Z,84.75
2023-03-05T04:13:52.856Z,84.97
2023-03-05T04:16:20.571Z,84.84
2023-03-05T04:18:47.733Z,84.99
2023-03-05T04:21:14.180Z,85.46
2023-03-05T04:23:40.820Z,85.56
2023-03-05T04:26:07.305Z,85.78
2023-03-05T04:28:33.899Z,84.77
2023-03-05T04:31:00.298Z,85.25
2023-03-05T04:33:26.798Z,85.62
2023-03-05T04:35:53.308Z,85.43
2023-03-05T04:38:19.772Z,85.65
2023-03-05T04:40:46.536Z,85.79
2023-03-05T04:43:12.992Z,85.40
2023-03-05T04:45:42.984Z,85.83
2023-03-05T04:48:10.646Z,85.23
2023-03-05T04:50:37.543Z,85.52
2023-03-05T04:53:04.356Z,86.22
2023-03-05T04:55:31.124Z,86.28
2023-03-05T04:57:57.818Z,86.25
2023-03-05T05:00:24.846Z,85.93
2023-03-05T05:02:52.292Z,86.24
2023-03-05T05:05:22.639Z,85.56
2023-03-05T05:07:49.055Z,85.65
2023-03-05T05:10:17.116Z,85.87
2023-03-05T05:12:43.634Z,86.11
2023-03-05T05:15:12.718Z,85.36
2023-03-05T05:17:39.167Z,85.76
2023-03-05T05:20:07.567Z,85.72
2023-03-05T05:22:34.957Z,85.76
2023-03-05T05:25:01.881Z,85.74
2023-03-05T05:27:28.365Z,85.44
2023-03-05T05:29:54.788Z,86.42
2023-03-05T05:32:24.016Z,86.30
2023-03-05T05:34:55.157Z,86.21
2023-03-05T05:37:22.275Z,85.69
2023-03-05T05:39:50.265Z,85.93
2023-03-05T05:42:21.845Z,86.14
2023-03-05T05:44:48.617Z,86.87
2023-03-05T05:47:16.152Z,86.52
2023-03-05T05:49:42.874Z,85.86
2023-03-05T05:52:09.688Z,85.77
2023-03-05T05:54:36.473Z,86.20
2023-03-05T05:57:03.087Z,85.97
2023-03-05T05:59:29.716Z,86.06
2023-03-05T06:01:56.243Z,86.15
2023-03-05T06:04:22.730Z,86.51
2023-03-05T06:06:49.183Z,86.37
2023-03-05T06:09:15.708Z,86.17
2023-03-05T06:11:42.154Z,85.75
2023-03-05T06:14:10.620Z,85.94
2023-03-05T06:16:37.052Z,86.33
2023-03-05T06:19:04.670Z,85.59
2023-03-05T06:21:31.748Z,85.75
2023-03-05T06:24:01.174Z,86.35
2023-03-05T06:26:27.632Z,86.12
2023-03-05T06:28:54.776Z,86.72
2023-03-05T06:31:25.453Z,86.41
2023-03-05T06:33:53.788Z,85.77
2023-03-05T06:36:22.530Z,85.75
2023-03-05T06:38:49.592Z,86.10
2023-03-05T06:41:20.225Z,87.09
2023-03-05T06:43:47.943Z,86.09
2023-03-05T06:46:19.115Z,86.41
2023-03-05T06:48:45.989Z,86.60
2023-03-05T06:51:16.394Z,86.29
2023-03-05T06:53:43.984Z,86.82
2023-03-05T06:56:11.384Z,87.34
2023-03-05T06:58:37.788Z,86.53
2023-03-05T07:01:07.724Z,86.48
2023-03-05T07:03:35.887Z,86.88
2023-03-05T07:06:04.865Z,86.89
2023-03-05T07:08:31.767Z,86.78
2023-03-05T07:10:58.437Z,86.38
2023-03-05T07:13:25.086Z,86.08
2023-03-05T07:15:51.678Z,87.33
2023-03-05T07:18:18.148Z,87.14
2023-03-05T07:20:44.655Z,87.08
2023-03-05T07:23:11.066Z,87.65
2023-03-05T07:25:38.291Z,87.04
2023-03-05T07:28:06.444Z,87.58
2023-03-05T07:30:34.314Z,87.94
2023-03-05T07:33:02.018Z,87.52
2023-03-05T07:35:28.713Z,88.08
2023-03-05T07:37:55.851Z,88.39
2023-03-05T07:40:22.469Z,87.92
2023-03-05T07:42:48.899Z,88.27
2023-03-05T07:45:23.859Z,87.84
2023-03-05T07:47:52.504Z,87.92
2023-03-05T07:50:19.105Z,87.84
2023-03-05T07:52:45.508Z,88.20
2023-03-05T07:55:12.077Z,88.76
2023-03-05T07:57:38.959Z,88.24
2023-03-05T08:00:06.945Z,88.43
2023-03-05T08:02:38.063Z,88.16
2023-03-05T08:05:04.999Z,88.54
2023-03-05T08:07:31.460Z,88.13
2023-03-05T08:09:57.875Z,88.46
2023-03-05T08:12:24.544Z,88.63
2023-03-05T08:14:51.506Z,88.12
2023-03-05T08:17:17.920Z,88.32
2023-03-05T08:19:44.361Z,88.05
2023-03-05T08:22:11.608Z,88.23
2023-03-05T08:24:38.225Z,88.58
2023-03-05T08:27:04.651Z,87.60
2023-03-05T08:29:31.102Z,88.21
2023-03-05T08:31:57.630Z,88.06
2023-03-05T08:34:24.177Z,88.21
2023-03-05T08:36:50.791Z,87.51
2023-03-05T08:39:17.999Z,87.29
2023-03-05T08:41:44.465Z,87.90
2023-03-05T08:44:10.895Z,87.60
2023-03-05T08:46:39.503Z,87.67
2023-03-05T08:49:07.370Z,87.52
2023-03-05T08:51:34.708Z,87.90
2023-03-05T08:54:02.448Z,87.48
2023-03-05T08:56:31.120Z,87.53
2023-03-05T08:58:57.546Z,87.05
2023-03-05T09:01:24.174Z,87.74
2023-03-05T09:03:50.772Z,87.46
2023-03-05T09:06:17.173Z,87.25
2023-03-05T09:08:43.603Z,87.24
2023-03-05T09:11:12.571Z,87.71
2023-03-05T09:13:39.750Z,87.87
2023-03-05T09:16:10.546Z,87.77
2023-03-05T09:18:37.321Z,88.07
2023-03-05T09:21:06.344Z,88.00
2023-03-05T09:23:32.833Z,88.17
2023-03-05T09:25:59.292Z,88.21
2023-03-05T09:28:25.737Z,87.70
2023-03-05T09:30:52.196Z,87.74
2023-03-05T09:33:18.704Z,87.41
2023-03-05T09:35:45.108Z,87.79
2023-03-05T09:38:11.583Z,87.12
2023-03-05T09:40:59.116Z,87.11
2023-03-05T09:44:05.936Z,86.19
2023-03-05T09:46:53.201Z,86.26
2023-03-05T09:49:41.365Z,85.37
2023-03-05T09:52:23.839Z,85.70
2023-03-05T09:54:54.954Z,85.77
2023-03-05T09:57:32.050Z,85.00
2023-03-05T10:00:03.018Z,84.94
2023-03-05T10:02:47.886Z,84.73
2023-03-05T10:05:24.856Z,84.93
2023-03-05T10:08:04.877Z,84.54
2023-03-05T10:10:41.808Z,84.21
2023-03-05T10:13:25.418Z,83.89
2023-03-05T10:15:54.700Z,83.51
2023-03-05T10:18:55.121Z,82.84
2023-03-05T10:21:31.133Z,82.90
2023-03-05T10:24:11.531Z,82.32
2023-03-05T10:26:59.468Z,82.57
2023-03-05T10:29:44.188Z,82.49
2023-03-05T10:32:30.341Z,82.18
2023-03-05T10:35:31.228Z,81.57
2023-03-05T10:38:15.883Z,81.35
2023-03-05T10:40:46.836Z,81.29
2023-03-05T10:43:49.056Z,80.90
2023-03-05T10:46:18.525Z,80.86
2023-03-05T10:48:50.881Z,79.98
2023-03-05T10:51:34.865Z,80.05
2023-03-05T10:54:28.930Z,79.09
2023-03-05T10:57:16.376Z,79.23
2023-03-05T10:59:48.678Z,79.53
2023-03-05T11:02:15.228Z,78.90
2023-03-05T11:04:41.946Z,78.97
2023-03-05T11:07:28.290Z,78.53
2023-03-05T11:10:01.780Z,78.53
2023-03-05T11:12:30.188Z,77.83
2023-03-05T11:15:11.944Z,78.21
2023-03-05T11:17:48.858Z,77.70
2023-03-05T11:20:27.606Z,77.70
2023-03-05T11:23:13.042Z,78.14
2023-03-05T11:25:48.613Z,78.01
2023-03-05T11:28:31.981Z,77.97
2023-03-05T11:31:01.357Z,77.85
2023-03-05T11:33:28.698Z,77.75
2023-03-05T11:36:23.028Z,77.27
2023-03-05T11:39:00.011Z,76.50
2023-03-05T11:41:43.678Z,76.23
2023-03-05T11:44:34.179Z,76.14
2023-03-05T11:47:11.997Z,75.86
2023-03-05T11:49:44.707Z,75.85
2023-03-05T11:52:18.230Z,75.61
2023-03-05T11:54:53.632Z,74.86
2023-03-05T11:57:23.973Z,74.66
2023-03-05T11:59:55.151Z,74.54
2023-03-05T12:02:27.703Z,74.57
2023-03-05T12:04:55.919Z,74.66
2023-03-05T12:07:33.296Z,74.22
2023-03-05T12:10:00.994Z,74.43
2023-03-05T12:13:22.320Z,74.13
2023-03-05T12:15:51.656Z,74.05
2023-03-05T12:18:33.745Z,74.22
2023-03-05T12:21:18.551Z,74.34
2023-03-05T12:23:48.497Z,74.04
2023-03-05T12:26:15.428Z,74.06
2023-03-05T12:28:41.852Z,73.99
2023-03-05T12:31:08.282Z,73.48
2023-03-05T12:33:41.689Z,73.09
2023-03-05T12:36:17.193Z,73.45
2023-03-05T12:38:46.382Z,73.06
2023-03-05T12:41:22.022Z,73.13
2023-03-05T12:44:06.832Z,73.08
2023-03-05T12:46:35.929Z,73.33
2023-03-05T12:49:17.662Z,73.26
2023-03-05T12:51:46.206Z,73.02
2023-03-05T12:54:36.085Z,72.97
2023-03-05T12:57:06.286Z,72.79
2023-03-05T13:00:05.117Z,72.71
2023-03-05T13:02:38.502Z,72.46
2023-03-05T13:05:21.570Z,72.55
2023-03-05T13:07:49.316Z,72.39
2023-03-05T13:10:23.910Z,72.37
2023-03-05T13:12:55.711Z,71.84
2023-03-05T13:15:24.471Z,72.22
2023-03-05T13:18:03.396Z,71.90
2023-03-05T13:20:34.452Z,71.58
2023-03-05T13:23:16.185Z,71.40
2023-03-05T13:25:44.067Z,71.24
2023-03-05T13:28:15.736Z,71.16
2023-03-05T13:31:03.470Z,71.44
2023-03-05T13:33:35.595Z,71.58
2023-03-05T13:36:03.004Z,71.65
2023-03-05T13:38:38.018Z,71.69
2023-03-05T13:41:20.086Z,71.71
2023-03-05T13:44:00.713Z,72.12
2023-03-05T13:46:39.003Z,72.33
2023-03-05T13:49:26.109Z,72.78
2023-03-05T13:51:54.992Z,72.65
2023-03-05T13:54:23.544Z,72.67
2023-03-05T13:56:59.366Z,73.14
2023-03-05T13:59:31.258Z,72.62
2023-03-05T14:01:59.868Z,73.33
2023-03-05T14:04:37.313Z,73.43
2023-03-05T14:07:07.787Z,73.63
2023-03-05T14:09:37.257Z,73.70
2023-03-05T14:12:22.409Z,74.03
2023-03-05T14:14:49.205Z,74.03
2023-03-05T14:17:41.485Z,74.15
2023-03-05T14:20:13.928Z,73.83
2023-03-05T14:22:43.516Z,74.49
2023-03-05T14:25:37.579Z,74.61
2023-03-05T14:28:07.592Z,74.56
2023-03-05T14:30:36.141Z,74.95
2023-03-05T14:33:03.377Z,74.83
2023-03-05T14:35:30.643Z,75.33
2023-03-05T14:37:59.706Z,74.92
2023-03-05T14:40:32.661Z,74.76
2023-03-05T14:43:06.994Z,74.84
2023-03-05T14:45:38.455Z,75.07
2023-03-05T14:48:07.004Z,75.31
2023-03-05T14:50:37.059Z,75.50
2023-03-05T14:53:08.489Z,75.70
2023-03-05T14:55:35.515Z,75.62
2023-03-05T14:58:12.634Z,76.09
2023-03-05T15:00:39.225Z,76.14
2023-03-05T15:03:05.793Z,75.79
2023-03-05T15:05:32.992Z,76.51
2023-03-05T15:07:59.534Z,76.52
2023-03-05T15:10:26.552Z,76.78
2023-03-05T15:12:53.468Z,76.62
2023-03-05T15:15:21.700Z,76.93
2023-03-05T15:17:51.629Z,76.68
2023-03-05T15:20:22.564Z,76.68
2023-03-05T15:22:49.062Z,77.08
2023-03-05T15:25:15.788Z,77.36
2023-03-05T15:27:42.350Z,77.08
2023-03-05T15:30:14.153Z,76.64
2023-03-05T15:32:40.655Z,77.03
2023-03-05T15:35:08.173Z,76.45
2023-03-05T15:37:34.574Z,76.29
2023-03-05T15:40:00.941Z,76.62
2023-03-05T15:42:27.414Z,76.29
2023-03-05T15:44:53.831Z,76.76
2023-03-05T15:47:20.280Z,76.41
2023-03-05T15:49:46.740Z,76.51
2023-03-05T15:52:14.182Z,76.96
2023-03-05T15:54:40.624Z,77.05
2023-03-05T15:57:10.419Z,76.46
2023-03-05T15:59:37.297Z,76.93
2023-03-05T16:02:03.924Z,76.96
2023-03-05T16:04:30.766Z,76.65
2023-03-05T16:07:02.847Z,76.57
2023-03-05T16:09:37.141Z,76.50
2023-03-05T16:12:08.606Z,76.49
2023-03-05T16:14:34.933Z,76.59
2023-03-05T16:17:03.427Z,76.48
2023-03-05T16:19:30.661Z,76.46
2023-03-05T16:21:57.055Z,77.18
2023-03-05T16:24:23.523Z,76.75
2023-03-05T16:26:50.000Z,77.33
2023-03-05T16:29:16.442Z,76.66
2023-03-05T16:31:44.852Z,77.05
2023-03-05T16:34:14.058Z,76.45
2023-03-05T16:36:45.939Z,76.89
2023-03-05T16:39:12.335Z,76.89
2023-03-05T16:41:38.740Z,77.03
2023-03-05T16:44:05.128Z,77.04
2023-03-05T16:46:33.942Z,76.98
2023-03-05T16:49:01.328Z,76.85
2023-03-05T16:51:27.793Z,77.26
2023-03-05T16:53:55.705Z,76.72
2023-03-05T16:56:22.351Z,76.83
2023-03-05T16:58:50.481Z,76.77
2023-03-05T17:01:20.176Z,76.81
2023-03-05T17:03:47.640Z,77.07
2023-03-05T17:06:16.928Z,76.86
2023-03-05T17:08:44.630Z,77.19
2023-03-05T17:11:12.630Z,77.17
2023-03-05T17:13:39.618Z,77.09
2023-03-05T17:16:06.873Z,77.36
2023-03-05T17:18:33.530Z,77.39
2023-03-05T17:21:01.572Z,77.06
2023-03-05T17:23:28.360Z,77.35
2023-03-05T17:25:55.160Z,77.76
2023-03-05T17:28:21.656Z,77.19
2023-03-05T17:30:48.081Z,77.11
2023-03-05T17:33:14.502Z,77.84
2023-03-05T17:35:46.963Z,77.27
2023-03-05T17:38:13.799Z,78.01
2023-03-05T17:40:40.412Z,77.96
2023-03-05T17:43:06.927Z,78.39
2023-03-05T17:45:35.281Z,78.14
2023-03-05T17:48:01.833Z,78.33
2023-03-05T17:50:28.365Z,78.55
2023-03-05T17:52:55.305Z,78.50
2023-03-05T17:55:24.589Z,78.73
2023-03-05T17:57:52.068Z,78.98
2023-03-05T18:00:24.275Z,78.83
2023-03-05T18:02:51.064Z,79.00
2023-03-05T18:05:20.054Z,79.62
2023-03-05T18:07:46.942Z,79.59
2023-03-05T18:10:16.073Z,79.81
2023-03-05T18:12:43.280Z,79.70
2023-03-05T18:15:12.421Z,79.50
2023-03-05T18:17:39.029Z,79.68
2023-03-05T18:20:07.182Z,79.88
2023-03-05T18:22:34.032Z,79.97
2023-03-05T18:25:00.454Z,80.56
2023-03-05T18:27:27.044Z,79.72
2023-03-05T18:29:54.218Z,79.99
2023-03-05T18:32:22.203Z,79.59
2023-03-05T18:34:50.587Z,80.11
2023-03-05T18:37:17.249Z,80.34
2023-03-05T18:39:43.701Z,79.54
2023-03-05T18:42:13.817Z,79.97
2023-03-05T18:44:40.968Z,79.92
2023-03-05T18:47:07.412Z,79.79
2023-03-05T18:49:33.957Z,80.16
2023-03-05T18:52:00.444Z,79.69
2023-03-05T18:54:26.830Z,79.73
2023-03-05T18:56:53.267Z,80.30
2023-03-05T18:59:19.676Z,79.82
2023-03-05T19:01:46.182Z,79.86
2023-03-05T19:04:12.693Z,79.91
2023-03-05T19:06:39.166Z,80.07
2023-03-05T19:09:12.087Z,79.78
2023-03-05T19:11:38.532Z,79.37
2023-03-05T19:14:04.942Z,79.31
2023-03-05T19:16:38.202Z,80.32
2023-03-05T19:19:19.526Z,79.40
2023-03-05T19:21:48.629Z,79.41
2023-03-05T19:24:15.555Z,79.74
2023-03-05T19:26:43.386Z,79.46
2023-03-05T19:29:10.096Z,79.91
2023-03-05T19:31:37.463Z,79.57
2023-03-05T19:34:04.169Z,79.50
2023-03-05T19:36:31.819Z,79.26
2023-03-05T19:38:58.309Z,79.37
2023-03-05T19:41:26.151Z,79.02
2023-03-05T19:43:52.577Z,79.02
2023-03-05T19:46:19.345Z,78.85
2023-03-05T19:48:46.429Z,78.88
2023-03-05T19:51:17.656Z,79.04
2023-03-05T19:53:44.229Z,78.85
2023-03-05T19:56:12.436Z,79.22
2023-03-05T19:58:38.992Z,79.37
2023-03-05T20:01:20.417Z,79.55
2023-03-05T20:03:49.757Z,79.20
2023-03-05T20:06:16.818Z,79.59
2023-03-05T20:08:44.368Z,79.54
2023-03-05T20:11:12.898Z,79.79
2023-03-05T20:13:39.716Z,79.65
2023-03-05T20:16:15.894Z,79.89
2023-03-05T20:18:42.540Z,79.76
2023-03-05T20:21:08.965Z,79.40
2023-03-05T20:23:35.578Z,79.81
2023-03-05T20:26:04.550Z,79.12
2023-03-05T20:28:31.644Z,79.28
2023-03-05T20:30:59.556Z,79.91
2023-03-05T20:33:27.544Z,79.88
2023-03-05T20:35:56.279Z,79.92
2023-03-05T20:38:30.195Z,79.71
2023-03-05T20:40:59.488Z,80.15
2023-03-05T20:43:34.110Z,79.86
2023-03-05T20:46:01.439Z,79.47
2023-03-05T20:48:31.624Z,79.45
2023-03-05T20:51:01.285Z,80.08
2023-03-05T20:53:27.767Z,79.19
2023-03-05T20:55:54.394Z,80.03
2023-03-05T20:58:20.800Z,79.95
2023-03-05T21:00:47.317Z,79.42
2023-03-05T21:03:13.852Z,79.70
2023-03-05T21:05:40.256Z,79.78
2023-03-05T21:08:06.712Z,80.05
2023-03-05T21:10:33.276Z,80.74
2023-03-05T21:13:00.999Z,80.29
2023-03-05T21:15:29.800Z,80.35
2023-03-05T21:17:56.651Z,80.38
2023-03-05T21:20:29.394Z,80.48
2023-03-05T21:22:57.081Z,80.54
2023-03-05T21:25:27.418Z,80.28
2023-03-05T21:28:09.387Z,80.33
2023-03-05T21:30:43.444Z,79.77
2023-03-05T21:33:17.112Z,79.38
2023-03-05T21:35:44.351Z,79.92
2023-03-05T21:38:11.904Z,79.65
2023-03-05T21:40:43.585Z,79.86
2023-03-05T21:43:12.600Z,79.16
2023-03-05T21:45:40.115Z,79.32
2023-03-05T21:48:07.265Z,79.46
2023-03-05T21:50:34.013Z,78.96
2023-03-05T21:53:02.036Z,78.53
2023-03-05T21:55:33.063Z,78.71
2023-03-05T21:58:00.190Z,78.75
2023-03-05T22:00:27.173Z,78.27
2023-03-05T22:02:54.249Z,77.63
2023-03-05T22:05:20.815Z,77.42
2023-03-05T22:07:47.289Z,77.84
2023-03-05T22:10:16.580Z,77.22
2023-03-05T22:13:08.141Z,77.75
2023-03-05T22:15:46.609Z,77.67
2023-03-05T22:18:15.405Z,77.67
2023-03-05T22:20:41.959Z,77.42
2023-03-05T22:23:08.689Z,77.83
2023-03-05T22:25:35.582Z,78.09
2023-03-05T22:28:03.957Z,77.70
2023-03-05T22:30:31.942Z,77.73
2023-03-05T22:32:59.910Z,77.54
2023-03-05T22:35:26.775Z,77.53
2023-03-05T22:37:53.482Z,77.52
2023-03-05T22:40:21.167Z,77.03
2023-03-05T22:42:48.056Z,77.46
2023-03-05T22:45:16.963Z,77.74
2023-03-05T22:47:46.284Z,77.24
2023-03-05T22:50:12.799Z,77.13
2023-03-05T22:52:39.275Z,76.55
2023-03-05T22:55:05.995Z,76.83
2023-03-05T22:57:33.182Z,76.90
2023-03-05T22:59:59.585Z,76.42
2023-03-05T23:02:26.056Z,76.60
2023-03-05T23:05:00.320Z,76.55
2023-03-05T23:07:29.234Z,76.63
2023-03-05T23:09:59.368Z,77.12
2023-03-05T23:12:27.636Z,77.17
2023-03-05T23:14:54.290Z,77.54
2023-03-05T23:17:20.754Z,77.03
2023-03-05T23:19:47.144Z,76.70
2023-03-05T23:22:14.391Z,76.82
2023-03-05T23:24:41.280Z,76.44
2023-03-05T23:27:08.671Z,76.66
2023-03-05T23:29:47.091Z,76.24
2023-03-05T23:32:13.897Z,76.77
2023-03-05T23:34:40.306Z,76.93
2023-03-05T23:37:07.161Z,76.67
2023-03-05T23:39:33.576Z,77.22
2023-03-05T23:41:59.987Z,77.61
2023-03-05T23:44:26.382Z,77.59
2023-03-05T23:46:52.781Z,76.75
2023-03-05T23:49:19.264Z,77.52
2023-03-05T23:51:45.695Z,76.86
2023-03-05T23:54:12.112Z,76.49
2023-03-05T23:56:38.500Z,76.49
2023-03-05T23:59:04.897Z,77.03
